sensor_id;sensor_type;location;lat;lon;timestamp;P1;durP1;ratioP1;P2;durP2;ratioP2
5999;SDS011;3028;49.468;7.694;2022-07-30T00:01:36;4.20;;;2.15;;
5999;SDS011;3028;49.468;7.694;2022-07-30T00:03:38;2.17;;;1.98;;
5999;SDS011;3028;49.468;7.694;2022-07-30T00:05:40;7.05;;;2.10;;
5999;SDS011;3028;49.468;7.694;2022-07-30T00:07:41;2.35;;;2.13;;
5999;SDS011;3028;49.468;7.694;2022-07-30T00:09:43;2.30;;;2.10;;
5999;SDS011;3028;49.468;7.694;2022-07-30T00:11:45;3.05;;;2.38;;
5999;SDS011;3028;49.468;7.694;2022-07-30T00:13:47;3.28;;;1.67;;
5999;SDS011;3028;49.468;7.694;2022-07-30T00:15:48;2.47;;;2.10;;
5999;SDS011;3028;49.468;7.694;2022-07-30T00:17:50;3.25;;;2.13;;
5999;SDS011;3028;49.468;7.694;2022-07-30T00:19:52;2.05;;;1.85;;
5999;SDS011;3028;49.468;7.694;2022-07-30T00:21:56;3.10;;;2.47;;
5999;SDS011;3028;49.468;7.694;2022-07-30T00:23:58;3.10;;;2.17;;
5999;SDS011;3028;49.468;7.694;2022-07-30T00:26:02;3.03;;;1.75;;
5999;SDS011;3028;49.468;7.694;2022-07-30T00:28:04;3.95;;;2.60;;
5999;SDS011;3028;49.468;7.694;2022-07-30T00:30:05;4.00;;;2.47;;
5999;SDS011;3028;49.468;7.694;2022-07-30T00:32:08;2.88;;;2.33;;
5999;SDS011;3028;49.468;7.694;2022-07-30T00:34:09;2.97;;;1.88;;
5999;SDS011;3028;49.468;7.694;2022-07-30T00:36:13;3.63;;;2.83;;
5999;SDS011;3028;49.468;7.694;2022-07-30T00:38:14;3.20;;;2.42;;
5999;SDS011;3028;49.468;7.694;2022-07-30T00:40:16;2.70;;;2.03;;
5999;SDS011;3028;49.468;7.694;2022-07-30T00:42:18;2.30;;;2.10;;
5999;SDS011;3028;49.468;7.694;2022-07-30T00:44:26;4.07;;;2.00;;
5999;SDS011;3028;49.468;7.694;2022-07-30T00:46:28;4.75;;;2.00;;
5999;SDS011;3028;49.468;7.694;2022-07-30T00:48:30;3.10;;;2.00;;
5999;SDS011;3028;49.468;7.694;2022-07-30T00:50:31;4.85;;;2.72;;
5999;SDS011;3028;49.468;7.694;2022-07-30T00:52:34;3.05;;;1.90;;
5999;SDS011;3028;49.468;7.694;2022-07-30T00:54:36;2.53;;;2.33;;
5999;SDS011;3028;49.468;7.694;2022-07-30T00:56:38;4.63;;;2.15;;
5999;SDS011;3028;49.468;7.694;2022-07-30T00:58:40;3.03;;;2.00;;
5999;SDS011;3028;49.468;7.694;2022-07-30T01:00:42;2.65;;;2.05;;
5999;SDS011;3028;49.468;7.694;2022-07-30T01:02:44;4.10;;;2.85;;
5999;SDS011;3028;49.468;7.694;2022-07-30T01:04:46;3.05;;;1.92;;
5999;SDS011;3028;49.468;7.694;2022-07-30T01:06:47;4.55;;;2.17;;
5999;SDS011;3028;49.468;7.694;2022-07-30T01:08:49;3.00;;;2.45;;
5999;SDS011;3028;49.468;7.694;2022-07-30T01:10:51;3.67;;;2.13;;
5999;SDS011;3028;49.468;7.694;2022-07-30T01:12:53;3.60;;;2.28;;
5999;SDS011;3028;49.468;7.694;2022-07-30T01:14:55;2.63;;;1.85;;
5999;SDS011;3028;49.468;7.694;2022-07-30T01:16:58;4.03;;;1.85;;
5999;SDS011;3028;49.468;7.694;2022-07-30T01:19:01;2.40;;;2.15;;
5999;SDS011;3028;49.468;7.694;2022-07-30T01:21:27;2.25;;;1.90;;
5999;SDS011;3028;49.468;7.694;2022-07-30T01:23:41;2.22;;;1.90;;
5999;SDS011;3028;49.468;7.694;2022-07-30T01:25:51;11.30;;;2.53;;
5999;SDS011;3028;49.468;7.694;2022-07-30T01:30:04;5.32;;;2.38;;
5999;SDS011;3028;49.468;7.694;2022-07-30T01:32:09;4.05;;;2.75;;
5999;SDS011;3028;49.468;7.694;2022-07-30T01:34:12;3.10;;;2.50;;
5999;SDS011;3028;49.468;7.694;2022-07-30T01:36:15;3.50;;;1.92;;
5999;SDS011;3028;49.468;7.694;2022-07-30T01:38:19;2.13;;;1.92;;
5999;SDS011;3028;49.468;7.694;2022-07-30T01:40:23;5.22;;;2.38;;
5999;SDS011;3028;49.468;7.694;2022-07-30T01:42:27;2.42;;;2.22;;
5999;SDS011;3028;49.468;7.694;2022-07-30T01:44:29;3.05;;;2.33;;
5999;SDS011;3028;49.468;7.694;2022-07-30T01:46:31;2.72;;;2.20;;
5999;SDS011;3028;49.468;7.694;2022-07-30T01:48:34;2.40;;;2.22;;
5999;SDS011;3028;49.468;7.694;2022-07-30T01:50:37;3.25;;;2.05;;
5999;SDS011;3028;49.468;7.694;2022-07-30T01:52:43;5.13;;;2.72;;
5999;SDS011;3028;49.468;7.694;2022-07-30T01:54:49;2.03;;;1.83;;
5999;SDS011;3028;49.468;7.694;2022-07-30T01:56:53;3.25;;;2.95;;
5999;SDS011;3028;49.468;7.694;2022-07-30T01:58:56;2.40;;;1.90;;
5999;SDS011;3028;49.468;7.694;2022-07-30T02:00:58;3.05;;;2.40;;
5999;SDS011;3028;49.468;7.694;2022-07-30T02:03:00;2.28;;;2.05;;
5999;SDS011;3028;49.468;7.694;2022-07-30T02:05:03;4.55;;;2.42;;
5999;SDS011;3028;49.468;7.694;2022-07-30T02:07:09;2.47;;;1.90;;
5999;SDS011;3028;49.468;7.694;2022-07-30T02:09:16;2.30;;;2.10;;
5999;SDS011;3028;49.468;7.694;2022-07-30T02:11:23;3.47;;;1.90;;
5999;SDS011;3028;49.468;7.694;2022-07-30T02:13:45;3.28;;;2.58;;
5999;SDS011;3028;49.468;7.694;2022-07-30T02:15:53;6.85;;;2.92;;
5999;SDS011;3028;49.468;7.694;2022-07-30T02:18:02;2.35;;;2.17;;
5999;SDS011;3028;49.468;7.694;2022-07-30T02:20:04;2.45;;;2.25;;
5999;SDS011;3028;49.468;7.694;2022-07-30T02:22:12;8.95;;;2.40;;
5999;SDS011;3028;49.468;7.694;2022-07-30T02:24:16;2.58;;;2.38;;
5999;SDS011;3028;49.468;7.694;2022-07-30T02:26:21;2.83;;;2.40;;
5999;SDS011;3028;49.468;7.694;2022-07-30T02:28:26;6.47;;;2.38;;
5999;SDS011;3028;49.468;7.694;2022-07-30T02:30:29;3.45;;;2.40;;
5999;SDS011;3028;49.468;7.694;2022-07-30T02:32:34;3.03;;;2.10;;
5999;SDS011;3028;49.468;7.694;2022-07-30T02:34:38;2.65;;;2.42;;
5999;SDS011;3028;49.468;7.694;2022-07-30T02:36:40;4.22;;;2.58;;
5999;SDS011;3028;49.468;7.694;2022-07-30T02:38:44;8.20;;;3.90;;
5999;SDS011;3028;49.468;7.694;2022-07-30T02:40:47;4.68;;;2.97;;
5999;SDS011;3028;49.468;7.694;2022-07-30T02:42:50;2.83;;;2.53;;
5999;SDS011;3028;49.468;7.694;2022-07-30T02:44:53;3.60;;;2.50;;
5999;SDS011;3028;49.468;7.694;2022-07-30T02:46:55;2.88;;;2.67;;
5999;SDS011;3028;49.468;7.694;2022-07-30T02:48:58;4.93;;;3.00;;
5999;SDS011;3028;49.468;7.694;2022-07-30T02:51:00;3.08;;;2.35;;
5999;SDS011;3028;49.468;7.694;2022-07-30T02:53:04;2.75;;;2.10;;
5999;SDS011;3028;49.468;7.694;2022-07-30T02:55:08;2.63;;;2.42;;
5999;SDS011;3028;49.468;7.694;2022-07-30T02:57:11;2.88;;;2.60;;
5999;SDS011;3028;49.468;7.694;2022-07-30T02:59:14;3.17;;;2.83;;
5999;SDS011;3028;49.468;7.694;2022-07-30T03:01:17;3.25;;;2.53;;
5999;SDS011;3028;49.468;7.694;2022-07-30T03:03:20;3.25;;;2.90;;
5999;SDS011;3028;49.468;7.694;2022-07-30T03:05:22;4.95;;;2.67;;
5999;SDS011;3028;49.468;7.694;2022-07-30T03:07:27;3.25;;;2.90;;
5999;SDS011;3028;49.468;7.694;2022-07-30T03:09:30;2.53;;;2.33;;
5999;SDS011;3028;49.468;7.694;2022-07-30T03:11:51;4.47;;;2.55;;
5999;SDS011;3028;49.468;7.694;2022-07-30T03:13:54;4.18;;;3.30;;
5999;SDS011;3028;49.468;7.694;2022-07-30T03:15:56;3.85;;;3.10;;
5999;SDS011;3028;49.468;7.694;2022-07-30T03:17:59;2.80;;;2.60;;
5999;SDS011;3028;49.468;7.694;2022-07-30T03:20:02;4.03;;;3.13;;
5999;SDS011;3028;49.468;7.694;2022-07-30T03:22:05;3.38;;;2.65;;
5999;SDS011;3028;49.468;7.694;2022-07-30T03:24:07;3.63;;;3.20;;
5999;SDS011;3028;49.468;7.694;2022-07-30T03:26:12;4.03;;;2.92;;
5999;SDS011;3028;49.468;7.694;2022-07-30T03:28:14;4.40;;;2.90;;
5999;SDS011;3028;49.468;7.694;2022-07-30T03:30:16;2.15;;;1.95;;
5999;SDS011;3028;49.468;7.694;2022-07-30T03:32:19;4.38;;;2.55;;
5999;SDS011;3028;49.468;7.694;2022-07-30T03:34:26;4.90;;;2.50;;
5999;SDS011;3028;49.468;7.694;2022-07-30T03:36:29;7.45;;;3.25;;
5999;SDS011;3028;49.468;7.694;2022-07-30T03:38:30;3.75;;;3.45;;
5999;SDS011;3028;49.468;7.694;2022-07-30T03:40:32;3.60;;;2.47;;
5999;SDS011;3028;49.468;7.694;2022-07-30T03:42:34;5.53;;;2.95;;
5999;SDS011;3028;49.468;7.694;2022-07-30T03:44:37;3.65;;;2.80;;
5999;SDS011;3028;49.468;7.694;2022-07-30T03:46:39;3.92;;;3.00;;
5999;SDS011;3028;49.468;7.694;2022-07-30T03:48:41;3.55;;;3.25;;
5999;SDS011;3028;49.468;7.694;2022-07-30T03:50:44;3.72;;;3.25;;
5999;SDS011;3028;49.468;7.694;2022-07-30T03:52:49;3.83;;;3.13;;
5999;SDS011;3028;49.468;7.694;2022-07-30T03:54:51;3.60;;;2.65;;
5999;SDS011;3028;49.468;7.694;2022-07-30T03:56:52;3.75;;;3.03;;
5999;SDS011;3028;49.468;7.694;2022-07-30T03:58:54;3.78;;;3.28;;
5999;SDS011;3028;49.468;7.694;2022-07-30T04:00:56;4.20;;;3.50;;
5999;SDS011;3028;49.468;7.694;2022-07-30T04:02:58;3.72;;;2.92;;
5999;SDS011;3028;49.468;7.694;2022-07-30T04:04:59;3.50;;;3.20;;
5999;SDS011;3028;49.468;7.694;2022-07-30T04:07:01;3.58;;;3.17;;
5999;SDS011;3028;49.468;7.694;2022-07-30T04:09:03;4.47;;;3.55;;
5999;SDS011;3028;49.468;7.694;2022-07-30T04:11:09;3.35;;;3.05;;
5999;SDS011;3028;49.468;7.694;2022-07-30T04:13:10;4.40;;;2.95;;
5999;SDS011;3028;49.468;7.694;2022-07-30T04:15:12;4.35;;;3.78;;
5999;SDS011;3028;49.468;7.694;2022-07-30T04:17:35;4.30;;;3.58;;
5999;SDS011;3028;49.468;7.694;2022-07-30T04:19:48;3.53;;;3.22;;
5999;SDS011;3028;49.468;7.694;2022-07-30T04:21:54;4.10;;;3.60;;
5999;SDS011;3028;49.468;7.694;2022-07-30T04:23:56;4.47;;;3.55;;
5999;SDS011;3028;49.468;7.694;2022-07-30T04:26:05;4.03;;;3.63;;
5999;SDS011;3028;49.468;7.694;2022-07-30T04:28:08;5.50;;;4.28;;
5999;SDS011;3028;49.468;7.694;2022-07-30T04:30:11;7.85;;;4.97;;
5999;SDS011;3028;49.468;7.694;2022-07-30T04:32:13;7.25;;;4.53;;
5999;SDS011;3028;49.468;7.694;2022-07-30T04:34:14;6.90;;;4.68;;
5999;SDS011;3028;49.468;7.694;2022-07-30T04:36:16;4.93;;;4.53;;
5999;SDS011;3028;49.468;7.694;2022-07-30T04:38:18;5.22;;;4.82;;
5999;SDS011;3028;49.468;7.694;2022-07-30T04:40:20;5.25;;;4.85;;
5999;SDS011;3028;49.468;7.694;2022-07-30T04:42:23;4.72;;;4.32;;
5999;SDS011;3028;49.468;7.694;2022-07-30T04:44:25;5.18;;;4.78;;
5999;SDS011;3028;49.468;7.694;2022-07-30T04:46:27;5.03;;;4.50;;
5999;SDS011;3028;49.468;7.694;2022-07-30T04:48:29;4.30;;;3.95;;
5999;SDS011;3028;49.468;7.694;2022-07-30T04:50:30;4.10;;;3.80;;
5999;SDS011;3028;49.468;7.694;2022-07-30T04:52:34;5.50;;;4.35;;
5999;SDS011;3028;49.468;7.694;2022-07-30T04:54:38;4.38;;;4.07;;
5999;SDS011;3028;49.468;7.694;2022-07-30T04:56:44;5.85;;;5.30;;
5999;SDS011;3028;49.468;7.694;2022-07-30T04:59:01;3.97;;;3.67;;
5999;SDS011;3028;49.468;7.694;2022-07-30T05:01:03;5.88;;;4.55;;
5999;SDS011;3028;49.468;7.694;2022-07-30T05:03:06;4.25;;;3.95;;
5999;SDS011;3028;49.468;7.694;2022-07-30T05:05:09;4.18;;;3.70;;
5999;SDS011;3028;49.468;7.694;2022-07-30T05:07:12;4.25;;;3.85;;
5999;SDS011;3028;49.468;7.694;2022-07-30T05:09:15;5.20;;;4.80;;
5999;SDS011;3028;49.468;7.694;2022-07-30T05:11:16;4.53;;;4.20;;
5999;SDS011;3028;49.468;7.694;2022-07-30T05:13:18;5.57;;;5.18;;
5999;SDS011;3028;49.468;7.694;2022-07-30T05:15:22;4.82;;;4.40;;
5999;SDS011;3028;49.468;7.694;2022-07-30T05:17:37;6.28;;;4.20;;
5999;SDS011;3028;49.468;7.694;2022-07-30T05:19:39;5.13;;;4.63;;
5999;SDS011;3028;49.468;7.694;2022-07-30T05:21:41;5.00;;;4.32;;
5999;SDS011;3028;49.468;7.694;2022-07-30T05:23:43;5.30;;;4.85;;
5999;SDS011;3028;49.468;7.694;2022-07-30T05:25:50;4.47;;;3.80;;
5999;SDS011;3028;49.468;7.694;2022-07-30T05:27:52;4.35;;;3.83;;
5999;SDS011;3028;49.468;7.694;2022-07-30T05:29:55;4.32;;;4.00;;
5999;SDS011;3028;49.468;7.694;2022-07-30T05:31:56;4.72;;;4.32;;
5999;SDS011;3028;49.468;7.694;2022-07-30T05:34:03;4.90;;;4.25;;
5999;SDS011;3028;49.468;7.694;2022-07-30T05:36:05;4.38;;;3.95;;
5999;SDS011;3028;49.468;7.694;2022-07-30T05:38:07;4.55;;;4.25;;
5999;SDS011;3028;49.468;7.694;2022-07-30T05:40:09;5.00;;;4.60;;
5999;SDS011;3028;49.468;7.694;2022-07-30T05:42:11;8.38;;;4.57;;
5999;SDS011;3028;49.468;7.694;2022-07-30T05:44:13;5.90;;;4.10;;
5999;SDS011;3028;49.468;7.694;2022-07-30T05:46:15;5.82;;;4.47;;
5999;SDS011;3028;49.468;7.694;2022-07-30T05:48:17;4.50;;;4.20;;
5999;SDS011;3028;49.468;7.694;2022-07-30T05:50:19;6.30;;;5.05;;
5999;SDS011;3028;49.468;7.694;2022-07-30T05:52:21;5.43;;;5.03;;
5999;SDS011;3028;49.468;7.694;2022-07-30T05:54:22;5.00;;;4.60;;
5999;SDS011;3028;49.468;7.694;2022-07-30T05:56:25;5.13;;;4.72;;
5999;SDS011;3028;49.468;7.694;2022-07-30T05:58:26;6.03;;;4.30;;
5999;SDS011;3028;49.468;7.694;2022-07-30T06:00:28;4.80;;;4.40;;
5999;SDS011;3028;49.468;7.694;2022-07-30T06:02:30;4.40;;;4.00;;
5999;SDS011;3028;49.468;7.694;2022-07-30T06:04:32;5.00;;;4.00;;
5999;SDS011;3028;49.468;7.694;2022-07-30T06:06:35;5.55;;;4.38;;
5999;SDS011;3028;49.468;7.694;2022-07-30T06:08:37;6.72;;;4.30;;
5999;SDS011;3028;49.468;7.694;2022-07-30T06:10:39;4.38;;;3.97;;
5999;SDS011;3028;49.468;7.694;2022-07-30T06:12:41;5.15;;;3.60;;
5999;SDS011;3028;49.468;7.694;2022-07-30T06:14:42;3.78;;;3.47;;
5999;SDS011;3028;49.468;7.694;2022-07-30T06:16:44;5.93;;;3.45;;
5999;SDS011;3028;49.468;7.694;2022-07-30T06:18:46;5.50;;;3.50;;
5999;SDS011;3028;49.468;7.694;2022-07-30T06:20:48;4.95;;;3.70;;
5999;SDS011;3028;49.468;7.694;2022-07-30T06:22:52;4.63;;;3.65;;
5999;SDS011;3028;49.468;7.694;2022-07-30T06:24:54;4.13;;;3.08;;
5999;SDS011;3028;49.468;7.694;2022-07-30T06:26:56;3.55;;;3.25;;
5999;SDS011;3028;49.468;7.694;2022-07-30T06:28:58;7.10;;;3.70;;
5999;SDS011;3028;49.468;7.694;2022-07-30T06:31:00;5.15;;;3.53;;
5999;SDS011;3028;49.468;7.694;2022-07-30T06:33:02;5.22;;;3.17;;
5999;SDS011;3028;49.468;7.694;2022-07-30T06:35:04;4.03;;;3.58;;
5999;SDS011;3028;49.468;7.694;2022-07-30T06:37:06;5.07;;;4.05;;
5999;SDS011;3028;49.468;7.694;2022-07-30T06:39:08;4.43;;;3.45;;
5999;SDS011;3028;49.468;7.694;2022-07-30T06:41:10;3.70;;;3.40;;
5999;SDS011;3028;49.468;7.694;2022-07-30T06:43:12;3.35;;;3.05;;
5999;SDS011;3028;49.468;7.694;2022-07-30T06:45:17;4.30;;;3.05;;
5999;SDS011;3028;49.468;7.694;2022-07-30T06:47:19;3.97;;;3.20;;
5999;SDS011;3028;49.468;7.694;2022-07-30T06:49:26;9.45;;;3.30;;
5999;SDS011;3028;49.468;7.694;2022-07-30T06:51:28;3.30;;;2.78;;
5999;SDS011;3028;49.468;7.694;2022-07-30T06:53:29;4.05;;;2.60;;
5999;SDS011;3028;49.468;7.694;2022-07-30T06:55:31;4.55;;;3.50;;
5999;SDS011;3028;49.468;7.694;2022-07-30T06:57:33;3.75;;;3.38;;
5999;SDS011;3028;49.468;7.694;2022-07-30T06:59:42;4.13;;;3.72;;
5999;SDS011;3028;49.468;7.694;2022-07-30T07:01:57;3.33;;;2.30;;
5999;SDS011;3028;49.468;7.694;2022-07-30T07:03:59;4.75;;;3.05;;
5999;SDS011;3028;49.468;7.694;2022-07-30T07:06:01;3.08;;;2.88;;
5999;SDS011;3028;49.468;7.694;2022-07-30T07:08:04;8.02;;;2.72;;
5999;SDS011;3028;49.468;7.694;2022-07-30T07:10:06;5.35;;;2.85;;
5999;SDS011;3028;49.468;7.694;2022-07-30T07:12:08;4.85;;;2.67;;
5999;SDS011;3028;49.468;7.694;2022-07-30T07:14:10;4.95;;;2.20;;
5999;SDS011;3028;49.468;7.694;2022-07-30T07:16:12;3.85;;;3.10;;
5999;SDS011;3028;49.468;7.694;2022-07-30T07:18:14;4.43;;;2.00;;
5999;SDS011;3028;49.468;7.694;2022-07-30T07:20:15;2.95;;;2.75;;
5999;SDS011;3028;49.468;7.694;2022-07-30T07:22:17;3.10;;;2.90;;
5999;SDS011;3028;49.468;7.694;2022-07-30T07:24:19;3.53;;;2.40;;
5999;SDS011;3028;49.468;7.694;2022-07-30T07:26:20;4.72;;;2.45;;
5999;SDS011;3028;49.468;7.694;2022-07-30T07:28:22;4.50;;;2.83;;
5999;SDS011;3028;49.468;7.694;2022-07-30T07:30:33;4.03;;;3.10;;
5999;SDS011;3028;49.468;7.694;2022-07-30T07:32:36;3.95;;;3.13;;
5999;SDS011;3028;49.468;7.694;2022-07-30T07:34:38;3.95;;;2.92;;
5999;SDS011;3028;49.468;7.694;2022-07-30T07:36:39;3.58;;;3.28;;
5999;SDS011;3028;49.468;7.694;2022-07-30T07:38:41;3.63;;;3.30;;
5999;SDS011;3028;49.468;7.694;2022-07-30T07:40:43;5.85;;;2.88;;
5999;SDS011;3028;49.468;7.694;2022-07-30T07:42:45;4.82;;;3.70;;
5999;SDS011;3028;49.468;7.694;2022-07-30T07:44:47;6.10;;;3.75;;
5999;SDS011;3028;49.468;7.694;2022-07-30T07:46:48;5.50;;;3.28;;
5999;SDS011;3028;49.468;7.694;2022-07-30T07:48:50;7.18;;;3.40;;
5999;SDS011;3028;49.468;7.694;2022-07-30T07:50:54;5.25;;;3.70;;
5999;SDS011;3028;49.468;7.694;2022-07-30T07:53:00;8.07;;;3.45;;
5999;SDS011;3028;49.468;7.694;2022-07-30T07:55:02;4.53;;;3.40;;
5999;SDS011;3028;49.468;7.694;2022-07-30T07:57:06;5.15;;;3.78;;
5999;SDS011;3028;49.468;7.694;2022-07-30T07:59:14;4.13;;;2.40;;
5999;SDS011;3028;49.468;7.694;2022-07-30T08:01:17;3.63;;;3.33;;
5999;SDS011;3028;49.468;7.694;2022-07-30T08:03:19;3.72;;;3.38;;
5999;SDS011;3028;49.468;7.694;2022-07-30T08:05:21;4.82;;;2.70;;
5999;SDS011;3028;49.468;7.694;2022-07-30T08:07:22;2.40;;;2.20;;
5999;SDS011;3028;49.468;7.694;2022-07-30T08:09:24;6.45;;;2.10;;
5999;SDS011;3028;49.468;7.694;2022-07-30T08:11:44;5.15;;;1.95;;
5999;SDS011;3028;49.468;7.694;2022-07-30T08:13:45;8.18;;;1.80;;
5999;SDS011;3028;49.468;7.694;2022-07-30T08:15:53;9.55;;;2.17;;
5999;SDS011;3028;49.468;7.694;2022-07-30T08:17:54;2.80;;;2.22;;
5999;SDS011;3028;49.468;7.694;2022-07-30T08:19:59;3.78;;;1.70;;
5999;SDS011;3028;49.468;7.694;2022-07-30T08:22:01;3.92;;;2.17;;
5999;SDS011;3028;49.468;7.694;2022-07-30T08:24:03;4.53;;;2.42;;
5999;SDS011;3028;49.468;7.694;2022-07-30T08:26:06;3.72;;;1.70;;
5999;SDS011;3028;49.468;7.694;2022-07-30T08:28:08;3.78;;;1.98;;
5999;SDS011;3028;49.468;7.694;2022-07-30T08:30:29;3.42;;;2.03;;
5999;SDS011;3028;49.468;7.694;2022-07-30T08:32:31;11.65;;;2.90;;
5999;SDS011;3028;49.468;7.694;2022-07-30T08:34:33;2.85;;;2.58;;
5999;SDS011;3028;49.468;7.694;2022-07-30T08:36:35;4.43;;;2.53;;
5999;SDS011;3028;49.468;7.694;2022-07-30T08:38:37;3.22;;;2.67;;
5999;SDS011;3028;49.468;7.694;2022-07-30T08:40:39;4.22;;;3.42;;
5999;SDS011;3028;49.468;7.694;2022-07-30T08:42:41;4.40;;;2.25;;
5999;SDS011;3028;49.468;7.694;2022-07-30T08:44:43;8.70;;;2.33;;
5999;SDS011;3028;49.468;7.694;2022-07-30T08:46:46;5.18;;;2.30;;
5999;SDS011;3028;49.468;7.694;2022-07-30T08:48:50;7.38;;;1.80;;
5999;SDS011;3028;49.468;7.694;2022-07-30T08:50:52;2.08;;;1.58;;
5999;SDS011;3028;49.468;7.694;2022-07-30T08:52:54;3.85;;;2.40;;
5999;SDS011;3028;49.468;7.694;2022-07-30T08:54:56;4.03;;;2.22;;
5999;SDS011;3028;49.468;7.694;2022-07-30T08:56:59;4.15;;;2.03;;
5999;SDS011;3028;49.468;7.694;2022-07-30T08:59:01;3.15;;;1.50;;
5999;SDS011;3028;49.468;7.694;2022-07-30T09:01:04;12.43;;;1.80;;
5999;SDS011;3028;49.468;7.694;2022-07-30T09:03:06;2.78;;;1.38;;
5999;SDS011;3028;49.468;7.694;2022-07-30T09:05:08;2.78;;;1.20;;
5999;SDS011;3028;49.468;7.694;2022-07-30T09:07:11;2.17;;;1.20;;
5999;SDS011;3028;49.468;7.694;2022-07-30T09:09:12;3.30;;;1.58;;
5999;SDS011;3028;49.468;7.694;2022-07-30T09:11:14;3.03;;;1.45;;
5999;SDS011;3028;49.468;7.694;2022-07-30T09:13:26;2.70;;;1.25;;
5999;SDS011;3028;49.468;7.694;2022-07-30T09:15:30;1.40;;;1.30;;
5999;SDS011;3028;49.468;7.694;2022-07-30T09:20:01;2.20;;;1.55;;
5999;SDS011;3028;49.468;7.694;2022-07-30T09:22:04;1.42;;;0.98;;
5999;SDS011;3028;49.468;7.694;2022-07-30T09:24:08;2.65;;;1.30;;
5999;SDS011;3028;49.468;7.694;2022-07-30T09:26:13;4.10;;;1.42;;
5999;SDS011;3028;49.468;7.694;2022-07-30T09:28:14;2.30;;;1.48;;
5999;SDS011;3028;49.468;7.694;2022-07-30T09:30:17;4.55;;;1.50;;
5999;SDS011;3028;49.468;7.694;2022-07-30T09:32:19;7.10;;;2.28;;
5999;SDS011;3028;49.468;7.694;2022-07-30T09:34:24;3.13;;;1.25;;
5999;SDS011;3028;49.468;7.694;2022-07-30T09:36:26;1.58;;;1.30;;
5999;SDS011;3028;49.468;7.694;2022-07-30T09:41:05;2.22;;;1.15;;
5999;SDS011;3028;49.468;7.694;2022-07-30T09:43:27;2.42;;;1.15;;
5999;SDS011;3028;49.468;7.694;2022-07-30T09:45:29;3.92;;;1.20;;
5999;SDS011;3028;49.468;7.694;2022-07-30T09:47:39;1.55;;;1.15;;
5999;SDS011;3028;49.468;7.694;2022-07-30T09:49:42;2.17;;;1.13;;
5999;SDS011;3028;49.468;7.694;2022-07-30T09:51:48;1.80;;;1.40;;
5999;SDS011;3028;49.468;7.694;2022-07-30T09:54:00;2.70;;;1.42;;
5999;SDS011;3028;49.468;7.694;2022-07-30T09:56:22;2.22;;;1.45;;
5999;SDS011;3028;49.468;7.694;2022-07-30T09:58:36;3.88;;;1.00;;
5999;SDS011;3028;49.468;7.694;2022-07-30T10:00:45;4.03;;;1.38;;
5999;SDS011;3028;49.468;7.694;2022-07-30T10:02:48;3.92;;;1.30;;
5999;SDS011;3028;49.468;7.694;2022-07-30T10:04:52;1.55;;;1.10;;
5999;SDS011;3028;49.468;7.694;2022-07-30T10:06:54;2.60;;;1.20;;
5999;SDS011;3028;49.468;7.694;2022-07-30T10:08:56;8.00;;;1.38;;
5999;SDS011;3028;49.468;7.694;2022-07-30T10:10:59;4.22;;;1.40;;
5999;SDS011;3028;49.468;7.694;2022-07-30T10:13:08;2.33;;;1.33;;
5999;SDS011;3028;49.468;7.694;2022-07-30T10:15:14;2.47;;;0.90;;
5999;SDS011;3028;49.468;7.694;2022-07-30T10:17:22;0.80;;;0.80;;
5999;SDS011;3028;49.468;7.694;2022-07-30T10:19:25;1.63;;;1.05;;
5999;SDS011;3028;49.468;7.694;2022-07-30T10:21:42;2.13;;;1.15;;
5999;SDS011;3028;49.468;7.694;2022-07-30T10:23:47;4.35;;;1.17;;
5999;SDS011;3028;49.468;7.694;2022-07-30T10:25:51;1.98;;;1.15;;
5999;SDS011;3028;49.468;7.694;2022-07-30T10:27:56;4.05;;;0.93;;
5999;SDS011;3028;49.468;7.694;2022-07-30T10:30:03;4.47;;;1.00;;
5999;SDS011;3028;49.468;7.694;2022-07-30T10:32:06;0.90;;;0.80;;
5999;SDS011;3028;49.468;7.694;2022-07-30T10:34:10;9.98;;;0.90;;
5999;SDS011;3028;49.468;7.694;2022-07-30T10:36:14;2.15;;;0.93;;
5999;SDS011;3028;49.468;7.694;2022-07-30T10:38:17;1.80;;;0.98;;
5999;SDS011;3028;49.468;7.694;2022-07-30T10:40:35;1.77;;;0.90;;
5999;SDS011;3028;49.468;7.694;2022-07-30T10:42:52;3.72;;;0.93;;
5999;SDS011;3028;49.468;7.694;2022-07-30T10:47:17;2.72;;;1.17;;
5999;SDS011;3028;49.468;7.694;2022-07-30T10:49:19;3.67;;;1.10;;
5999;SDS011;3028;49.468;7.694;2022-07-30T10:51:22;2.15;;;0.98;;
5999;SDS011;3028;49.468;7.694;2022-07-30T10:53:46;3.08;;;1.10;;
5999;SDS011;3028;49.468;7.694;2022-07-30T10:55:52;1.30;;;1.05;;
5999;SDS011;3028;49.468;7.694;2022-07-30T10:58:26;2.58;;;1.23;;
5999;SDS011;3028;49.468;7.694;2022-07-30T11:00:28;3.97;;;1.17;;
5999;SDS011;3028;49.468;7.694;2022-07-30T11:02:32;1.10;;;0.80;;
5999;SDS011;3028;49.468;7.694;2022-07-30T11:04:36;1.75;;;1.30;;
5999;SDS011;3028;49.468;7.694;2022-07-30T11:06:37;2.10;;;1.00;;
5999;SDS011;3028;49.468;7.694;2022-07-30T11:08:40;4.15;;;1.13;;
5999;SDS011;3028;49.468;7.694;2022-07-30T11:10:43;2.03;;;0.90;;
5999;SDS011;3028;49.468;7.694;2022-07-30T11:12:53;1.73;;;0.93;;
5999;SDS011;3028;49.468;7.694;2022-07-30T11:14:55;3.22;;;1.02;;
5999;SDS011;3028;49.468;7.694;2022-07-30T11:17:07;1.08;;;0.90;;
5999;SDS011;3028;49.468;7.694;2022-07-30T11:19:13;3.40;;;1.27;;
5999;SDS011;3028;49.468;7.694;2022-07-30T11:21:39;5.65;;;1.08;;
5999;SDS011;3028;49.468;7.694;2022-07-30T11:23:40;2.28;;;0.85;;
5999;SDS011;3028;49.468;7.694;2022-07-30T11:25:43;1.83;;;0.90;;
5999;SDS011;3028;49.468;7.694;2022-07-30T11:27:54;2.70;;;0.90;;
5999;SDS011;3028;49.468;7.694;2022-07-30T11:29:57;1.63;;;1.13;;
5999;SDS011;3028;49.468;7.694;2022-07-30T11:34:29;1.63;;;0.90;;
5999;SDS011;3028;49.468;7.694;2022-07-30T11:36:32;2.00;;;0.88;;
5999;SDS011;3028;49.468;7.694;2022-07-30T11:41:07;3.95;;;0.73;;
5999;SDS011;3028;49.468;7.694;2022-07-30T11:45:36;2.83;;;0.80;;
5999;SDS011;3028;49.468;7.694;2022-07-30T11:47:38;1.85;;;0.90;;
5999;SDS011;3028;49.468;7.694;2022-07-30T11:49:40;1.70;;;0.80;;
5999;SDS011;3028;49.468;7.694;2022-07-30T11:51:43;2.65;;;0.90;;
5999;SDS011;3028;49.468;7.694;2022-07-30T11:53:58;1.50;;;0.75;;
5999;SDS011;3028;49.468;7.694;2022-07-30T11:56:07;1.35;;;0.95;;
5999;SDS011;3028;49.468;7.694;2022-07-30T11:58:31;1.75;;;0.80;;
5999;SDS011;3028;49.468;7.694;2022-07-30T12:00:38;1.98;;;0.80;;
5999;SDS011;3028;49.468;7.694;2022-07-30T12:02:41;2.80;;;0.90;;
5999;SDS011;3028;49.468;7.694;2022-07-30T12:04:43;4.53;;;0.85;;
5999;SDS011;3028;49.468;7.694;2022-07-30T12:06:45;0.95;;;0.82;;
5999;SDS011;3028;49.468;7.694;2022-07-30T12:08:49;1.30;;;0.82;;
5999;SDS011;3028;49.468;7.694;2022-07-30T12:10:59;0.80;;;0.80;;
5999;SDS011;3028;49.468;7.694;2022-07-30T12:13:11;1.15;;;1.05;;
5999;SDS011;3028;49.468;7.694;2022-07-30T12:15:27;9.48;;;0.80;;
5999;SDS011;3028;49.468;7.694;2022-07-30T12:17:43;1.85;;;0.90;;
5999;SDS011;3028;49.468;7.694;2022-07-30T12:19:45;1.52;;;0.93;;
5999;SDS011;3028;49.468;7.694;2022-07-30T12:21:49;3.15;;;0.80;;
5999;SDS011;3028;49.468;7.694;2022-07-30T12:25:56;0.85;;;0.70;;
5999;SDS011;3028;49.468;7.694;2022-07-30T12:27:58;0.70;;;0.63;;
5999;SDS011;3028;49.468;7.694;2022-07-30T12:30:00;5.70;;;1.13;;
5999;SDS011;3028;49.468;7.694;2022-07-30T12:32:04;0.70;;;0.40;;
5999;SDS011;3028;49.468;7.694;2022-07-30T12:34:18;0.55;;;0.52;;
5999;SDS011;3028;49.468;7.694;2022-07-30T12:36:26;0.47;;;0.47;;
5999;SDS011;3028;49.468;7.694;2022-07-30T12:38:44;2.15;;;0.50;;
5999;SDS011;3028;49.468;7.694;2022-07-30T12:41:01;0.85;;;0.55;;
5999;SDS011;3028;49.468;7.694;2022-07-30T12:43:04;0.65;;;0.52;;
5999;SDS011;3028;49.468;7.694;2022-07-30T12:45:30;0.68;;;0.50;;
5999;SDS011;3028;49.468;7.694;2022-07-30T12:47:53;4.07;;;0.90;;
5999;SDS011;3028;49.468;7.694;2022-07-30T12:49:56;2.15;;;0.50;;
5999;SDS011;3028;49.468;7.694;2022-07-30T12:52:01;1.17;;;0.47;;
5999;SDS011;3028;49.468;7.694;2022-07-30T12:54:13;3.00;;;0.70;;
5999;SDS011;3028;49.468;7.694;2022-07-30T12:56:23;0.90;;;0.40;;
5999;SDS011;3028;49.468;7.694;2022-07-30T12:58:34;2.28;;;0.80;;
5999;SDS011;3028;49.468;7.694;2022-07-30T13:02:45;1.75;;;0.40;;
5999;SDS011;3028;49.468;7.694;2022-07-30T13:04:49;4.13;;;0.60;;
5999;SDS011;3028;49.468;7.694;2022-07-30T13:07:11;0.75;;;0.60;;
5999;SDS011;3028;49.468;7.694;2022-07-30T13:09:17;0.60;;;0.38;;
5999;SDS011;3028;49.468;7.694;2022-07-30T13:11:22;0.40;;;0.40;;
5999;SDS011;3028;49.468;7.694;2022-07-30T13:13:28;1.58;;;0.57;;
5999;SDS011;3028;49.468;7.694;2022-07-30T13:15:31;0.50;;;0.50;;